createdAt,value
2023-06-30T00:01:50.771Z,23.07
2023-06-30T00:04:18.878Z,22.73
2023-06-30T00:06:46.448Z,22.50
2023-06-30T00:09:13.635Z,22.63
2023-06-30T00:11:40.876Z,21.27
2023-06-30T00:14:08.114Z,15.67
2023-06-30T00:16:35.492Z,15.57
2023-06-30T00:19:04.145Z,14.93
2023-06-30T00:21:31.307Z,14.27
2023-06-30T00:24:02.973Z,13.73
2023-06-30T00:26:30.700Z,13.43
2023-06-30T00:29:02.687Z,13.23
2023-06-30T00:31:30.079Z,12.97
2023-06-30T00:33:58.069Z,12.30
2023-06-30T00:36:25.520Z,12.67
2023-06-30T00:38:52.797Z,12.10
2023-06-30T00:41:20.176Z,12.20
2023-06-30T00:43:47.380Z,11.93
2023-06-30T00:46:15.183Z,11.50
2023-06-30T00:48:42.487Z,11.87
2023-06-30T00:51:10.546Z,11.13
2023-06-30T00:53:37.997Z,11.13
2023-06-30T00:56:05.340Z,11.03
2023-06-30T00:58:32.684Z,11.93
2023-06-30T01:01:03.001Z,11.73
2023-06-30T01:03:40.758Z,11.57
2023-06-30T01:06:22.110Z,11.47
2023-06-30T01:08:53.398Z,10.33
2023-06-30T01:11:21.309Z,10.90
2023-06-30T01:13:49.258Z,10.87
2023-06-30T01:16:17.458Z,10.30
2023-06-30T01:18:45.886Z,10.37
2023-06-30T01:21:14.141Z,10.67
2023-06-30T01:23:51.301Z,10.00
2023-06-30T01:26:19.391Z,9.27
2023-06-30T01:28:46.732Z,9.67
2023-06-30T01:31:14.282Z,8.20
2023-06-30T01:33:42.256Z,7.00
2023-06-30T01:36:10.003Z,6.50
2023-06-30T01:38:37.256Z,6.03
2023-06-30T01:41:07.937Z,4.90
2023-06-30T01:43:35.325Z,4.33
2023-06-30T01:46:04.576Z,3.90
2023-06-30T01:48:31.882Z,3.70
2023-06-30T01:50:59.437Z,3.20
2023-06-30T01:53:27.749Z,3.00
2023-06-30T01:55:59.687Z,3.20
2023-06-30T01:58:26.902Z,3.07
2023-06-30T02:00:54.098Z,2.83
2023-06-30T02:03:21.369Z,2.70
2023-06-30T02:05:48.776Z,2.70
2023-06-30T02:08:16.068Z,2.37
2023-06-30T02:10:43.259Z,2.57
2023-06-30T02:13:10.428Z,2.30
2023-06-30T02:15:37.602Z,2.40
2023-06-30T02:18:04.860Z,2.33
2023-06-30T02:20:33.440Z,2.80
2023-06-30T02:23:00.609Z,2.77
2023-06-30T02:25:27.844Z,3.40
2023-06-30T02:27:55.163Z,3.17
2023-06-30T02:30:22.403Z,3.30
2023-06-30T02:32:49.720Z,2.90
2023-06-30T02:35:17.202Z,3.17
2023-06-30T02:37:44.414Z,3.00
2023-06-30T02:40:11.817Z,3.20
2023-06-30T02:42:39.022Z,3.20
2023-06-30T02:45:06.891Z,2.60
2023-06-30T02:47:34.102Z,3.03
2023-06-30T02:50:01.344Z,2.40
2023-06-30T02:52:28.599Z,2.50
2023-06-30T02:54:55.788Z,2.43
2023-06-30T02:57:22.991Z,2.63
2023-06-30T02:59:50.143Z,2.87
2023-06-30T03:02:17.535Z,2.30
2023-06-30T03:04:44.814Z,2.47
2023-06-30T03:07:12.034Z,2.13
2023-06-30T03:09:39.321Z,2.50
2023-06-30T03:12:06.693Z,2.77
2023-06-30T03:14:33.893Z,2.10
2023-06-30T03:17:01.277Z,2.60
2023-06-30T03:19:28.541Z,2.07
2023-06-30T03:21:55.718Z,2.70
2023-06-30T03:24:22.881Z,2.83
2023-06-30T03:26:50.070Z,2.40
2023-06-30T03:29:17.291Z,3.13
2023-06-30T03:31:44.496Z,2.97
2023-06-30T03:34:11.649Z,3.10
2023-06-30T03:36:38.863Z,3.27
2023-06-30T03:39:06.378Z,2.70
2023-06-30T03:41:33.737Z,3.17
2023-06-30T03:44:00.928Z,3.00
2023-06-30T03:46:28.137Z,3.60
2023-06-30T03:48:55.701Z,3.43
2023-06-30T03:51:22.871Z,3.10
2023-06-30T03:53:50.039Z,3.10
2023-06-30T03:56:17.243Z,4.07
2023-06-30T03:58:44.485Z,3.30
2023-06-30T04:01:12.427Z,3.47
2023-06-30T04:03:39.871Z,3.57
2023-06-30T04:06:07.193Z,3.00
2023-06-30T04:08:34.521Z,3.00
2023-06-30T04:11:01.850Z,3.57
2023-06-30T04:13:29.030Z,3.30
2023-06-30T04:15:56.265Z,3.13
2023-06-30T04:18:23.496Z,3.50
2023-06-30T04:20:50.711Z,3.30
2023-06-30T04:23:17.868Z,3.57
2023-06-30T04:25:45.211Z,3.80
2023-06-30T04:28:12.504Z,3.77
2023-06-30T04:30:39.663Z,3.70
2023-06-30T04:33:07.181Z,3.40
2023-06-30T04:35:34.493Z,3.50
2023-06-30T04:38:03.630Z,3.77
2023-06-30T04:40:30.850Z,3.60
2023-06-30T04:42:57.998Z,3.63
2023-06-30T04:45:25.179Z,3.27
2023-06-30T04:47:52.371Z,3.80
2023-06-30T04:50:19.604Z,3.77
2023-06-30T04:52:46.770Z,3.70
2023-06-30T04:55:13.926Z,3.70
2023-06-30T04:57:41.332Z,3.90
2023-06-30T05:00:09.245Z,3.67
2023-06-30T05:02:36.639Z,3.83
2023-06-30T05:05:03.932Z,3.97
2023-06-30T05:07:31.173Z,4.20
2023-06-30T05:09:58.405Z,3.83
2023-06-30T05:12:25.586Z,4.20
2023-06-30T05:14:53.141Z,3.90
2023-06-30T05:17:20.429Z,4.20
2023-06-30T05:19:47.818Z,4.70
2023-06-30T05:22:16.072Z,4.33
2023-06-30T05:24:43.553Z,3.63
2023-06-30T05:27:10.808Z,3.70
2023-06-30T05:29:37.965Z,4.13
2023-06-30T05:32:05.399Z,4.17
2023-06-30T05:34:32.594Z,4.57
2023-06-30T05:36:59.852Z,4.60
2023-06-30T05:39:27.078Z,4.23
2023-06-30T05:41:54.250Z,4.00
2023-06-30T05:44:21.466Z,4.07
2023-06-30T05:46:48.715Z,4.67
2023-06-30T05:49:15.916Z,4.40
2023-06-30T05:51:43.232Z,3.87
2023-06-30T05:54:11.535Z,4.60
2023-06-30T05:56:38.752Z,4.53
2023-06-30T05:59:10.595Z,4.60
2023-06-30T06:01:40.924Z,4.43
2023-06-30T06:04:12.336Z,4.03
2023-06-30T06:06:39.892Z,4.07
2023-06-30T06:09:07.494Z,4.33
2023-06-30T06:11:34.767Z,4.90
2023-06-30T06:14:01.959Z,4.43
2023-06-30T06:16:29.198Z,4.13
2023-06-30T06:18:56.391Z,4.33
2023-06-30T06:21:28.084Z,4.17
2023-06-30T06:23:55.942Z,4.33
2023-06-30T06:26:23.141Z,4.20
2023-06-30T06:28:50.302Z,4.10
2023-06-30T06:31:17.640Z,4.57
2023-06-30T06:33:44.934Z,3.67
2023-06-30T06:36:12.346Z,3.70
2023-06-30T06:38:40.151Z,3.80
2023-06-30T06:41:07.375Z,4.33
2023-06-30T06:43:34.570Z,4.20
2023-06-30T06:46:01.823Z,4.30
2023-06-30T06:48:29.965Z,4.30
2023-06-30T06:51:06.375Z,3.97
2023-06-30T06:53:35.135Z,3.90
2023-06-30T06:56:03.203Z,4.40
2023-06-30T06:58:31.496Z,4.70
2023-06-30T07:00:58.934Z,4.17
2023-06-30T07:03:26.281Z,4.03
2023-06-30T07:05:53.499Z,4.10
2023-06-30T07:08:20.937Z,3.63
2023-06-30T07:10:48.610Z,3.80
2023-06-30T07:13:19.495Z,3.80
2023-06-30T07:15:48.844Z,3.90
2023-06-30T07:18:20.233Z,4.13
2023-06-30T07:20:51.659Z,3.60
2023-06-30T07:23:18.976Z,4.23
2023-06-30T07:25:46.950Z,4.20
2023-06-30T07:28:14.614Z,3.87
2023-06-30T07:30:45.170Z,4.10
2023-06-30T07:33:13.587Z,4.67
2023-06-30T07:35:40.934Z,4.13
2023-06-30T07:38:08.162Z,4.20
2023-06-30T07:40:53.959Z,4.20
2023-06-30T07:43:23.607Z,4.20
2023-06-30T07:45:50.917Z,4.10
2023-06-30T07:48:18.245Z,3.47
2023-06-30T07:50:58.869Z,3.40
2023-06-30T07:53:30.874Z,3.97
2023-06-30T07:55:58.047Z,4.13
2023-06-30T07:58:25.357Z,4.03
2023-06-30T08:00:52.522Z,3.60
2023-06-30T08:03:21.177Z,3.77
2023-06-30T08:05:48.904Z,3.87
2023-06-30T08:08:16.448Z,3.60
2023-06-30T08:10:44.838Z,3.70
2023-06-30T08:13:12.336Z,3.70
2023-06-30T08:15:39.522Z,3.83
2023-06-30T08:18:10.629Z,3.57
2023-06-30T08:20:38.306Z,3.70
2023-06-30T08:23:05.900Z,4.00
2023-06-30T08:25:33.098Z,3.60
2023-06-30T08:28:00.747Z,3.53
2023-06-30T08:30:28.623Z,3.70
2023-06-30T08:32:57.639Z,3.60
2023-06-30T08:35:25.364Z,3.50
2023-06-30T08:37:54.177Z,3.70
2023-06-30T08:40:32.386Z,3.27
2023-06-30T08:43:00.435Z,3.50
2023-06-30T08:45:28.912Z,3.30
2023-06-30T08:48:01.850Z,3.50
2023-06-30T08:50:30.115Z,3.60
2023-06-30T08:52:57.497Z,3.80
2023-06-30T08:55:24.793Z,3.40
2023-06-30T08:57:52.304Z,3.63
2023-06-30T09:00:20.919Z,3.20
2023-06-30T09:02:49.654Z,3.97
2023-06-30T09:05:17.057Z,3.17
2023-06-30T09:07:47.881Z,3.03
2023-06-30T09:10:15.811Z,3.30
2023-06-30T09:12:45.376Z,3.37
2023-06-30T09:15:12.686Z,3.20
2023-06-30T09:17:40.483Z,3.27
2023-06-30T09:20:08.292Z,3.40
2023-06-30T09:22:51.580Z,3.47
2023-06-30T09:25:29.346Z,3.27
2023-06-30T09:27:57.096Z,2.97
2023-06-30T09:30:37.336Z,3.50
2023-06-30T09:33:04.835Z,3.67
2023-06-30T09:35:39.650Z,3.33
2023-06-30T09:38:13.794Z,3.07
2023-06-30T09:40:44.704Z,3.00
2023-06-30T09:43:17.735Z,3.30
2023-06-30T09:45:45.749Z,2.87
2023-06-30T09:48:13.190Z,3.20
2023-06-30T09:50:40.458Z,3.17
2023-06-30T09:53:09.447Z,3.27
2023-06-30T09:55:48.923Z,2.90
2023-06-30T09:58:17.124Z,3.10
2023-06-30T10:00:44.742Z,3.07
2023-06-30T10:03:12.049Z,4.17
2023-06-30T10:05:39.503Z,3.07
2023-06-30T10:08:07.292Z,3.03
2023-06-30T10:10:34.711Z,3.63
2023-06-30T10:13:03.499Z,3.00
2023-06-30T10:15:33.049Z,3.03
2023-06-30T10:18:00.441Z,2.70
2023-06-30T10:20:38.482Z,2.90
2023-06-30T10:23:15.038Z,3.00
2023-06-30T10:25:42.439Z,2.83
2023-06-30T10:28:09.731Z,2.70
2023-06-30T10:30:37.349Z,2.43
2023-06-30T10:33:04.861Z,2.40
2023-06-30T10:35:32.918Z,2.30
2023-06-30T10:38:00.278Z,2.90
2023-06-30T10:40:31.663Z,2.70
2023-06-30T10:42:59.786Z,2.97
2023-06-30T10:45:31.798Z,2.93
2023-06-30T10:47:59.413Z,2.50
2023-06-30T10:50:26.765Z,2.77
2023-06-30T10:52:54.872Z,2.60
2023-06-30T10:55:22.932Z,2.43
2023-06-30T10:57:52.074Z,2.80
2023-06-30T11:00:20.159Z,2.93
2023-06-30T11:02:56.493Z,2.83
2023-06-30T11:05:24.745Z,3.03
2023-06-30T11:07:56.177Z,2.80
2023-06-30T11:10:27.809Z,2.90
2023-06-30T11:12:58.350Z,2.67
2023-06-30T11:15:26.960Z,2.73
2023-06-30T11:17:54.183Z,2.87
2023-06-30T11:20:27.336Z,2.80
2023-06-30T11:23:02.925Z,2.80
2023-06-30T11:25:33.933Z,2.90
2023-06-30T11:28:05.879Z,3.00
2023-06-30T11:30:37.666Z,2.90
2023-06-30T11:33:06.556Z,2.63
2023-06-30T11:35:34.828Z,2.70
2023-06-30T11:38:02.145Z,2.60
2023-06-30T11:40:29.398Z,2.53
2023-06-30T11:42:56.618Z,2.60
2023-06-30T11:45:28.504Z,2.70
2023-06-30T11:47:57.640Z,3.03
2023-06-30T11:50:27.070Z,2.63
2023-06-30T11:52:54.347Z,2.87
2023-06-30T11:55:21.760Z,2.93
2023-06-30T11:57:50.292Z,2.73
2023-06-30T12:00:18.874Z,2.77
2023-06-30T12:02:52.307Z,2.80
2023-06-30T12:05:27.333Z,2.93
2023-06-30T12:07:58.815Z,2.70
2023-06-30T12:10:37.836Z,3.07
2023-06-30T12:13:07.229Z,3.27
2023-06-30T12:15:34.548Z,2.53
2023-06-30T12:18:05.576Z,2.40
2023-06-30T12:20:37.657Z,2.63
2023-06-30T12:23:08.930Z,2.10
2023-06-30T12:25:36.664Z,2.53
2023-06-30T12:28:07.367Z,2.30
2023-06-30T12:30:34.849Z,2.28
2023-06-30T12:33:02.919Z,2.20
2023-06-30T12:35:31.610Z,2.40
2023-06-30T12:37:59.093Z,2.40
2023-06-30T12:40:28.859Z,2.63
2023-06-30T12:42:56.238Z,2.47
2023-06-30T12:45:23.450Z,2.20
2023-06-30T12:47:50.774Z,2.20
2023-06-30T12:50:18.075Z,2.38
2023-06-30T12:52:45.347Z,2.03
2023-06-30T12:55:13.285Z,2.03
2023-06-30T12:57:43.436Z,2.38
2023-06-30T13:00:10.966Z,2.10
2023-06-30T13:02:38.907Z,1.95
2023-06-30T13:05:07.495Z,2.10
2023-06-30T13:07:35.203Z,2.10
2023-06-30T13:10:06.106Z,2.17
2023-06-30T13:12:33.292Z,1.83
2023-06-30T13:15:01.071Z,1.85
2023-06-30T13:17:28.266Z,1.67
2023-06-30T13:19:55.482Z,1.80
2023-06-30T13:22:22.676Z,1.83
2023-06-30T13:24:50.772Z,1.80
2023-06-30T13:27:18.148Z,1.65
2023-06-30T13:29:49.237Z,1.80
2023-06-30T13:32:19.541Z,1.60
2023-06-30T13:34:47.615Z,1.85
2023-06-30T13:37:14.903Z,1.77
2023-06-30T13:39:42.087Z,1.70
2023-06-30T13:42:09.984Z,1.63
2023-06-30T13:44:37.606Z,1.65
2023-06-30T13:47:04.823Z,1.70
2023-06-30T13:49:32.003Z,2.00
2023-06-30T13:51:59.268Z,1.70
2023-06-30T13:54:26.444Z,1.85
2023-06-30T13:56:54.095Z,1.60
2023-06-30T13:59:21.649Z,1.65
2023-06-30T14:01:49.012Z,1.70
2023-06-30T14:04:16.365Z,1.70
2023-06-30T14:06:43.649Z,1.73
2023-06-30T14:09:12.054Z,1.63
2023-06-30T14:11:39.942Z,1.50
2023-06-30T14:14:07.175Z,1.80
2023-06-30T14:16:36.039Z,1.70
2023-06-30T14:19:04.480Z,2.22
2023-06-30T14:21:32.397Z,1.70
2023-06-30T14:24:00.143Z,1.60
2023-06-30T14:26:27.432Z,1.60
2023-06-30T14:28:54.953Z,1.88
2023-06-30T14:31:22.242Z,1.95
2023-06-30T14:33:49.612Z,2.17
2023-06-30T14:36:16.827Z,1.90
2023-06-30T14:38:44.585Z,1.70
2023-06-30T14:41:11.830Z,1.70
2023-06-30T14:43:39.013Z,2.03
2023-06-30T14:46:06.267Z,1.75
2023-06-30T14:48:33.473Z,1.80
2023-06-30T14:51:00.674Z,1.80
2023-06-30T14:53:27.858Z,1.65
2023-06-30T14:55:55.046Z,1.52
2023-06-30T14:58:22.228Z,1.77
2023-06-30T15:00:50.167Z,1.80
2023-06-30T15:03:18.156Z,1.40
2023-06-30T15:05:45.779Z,1.73
2023-06-30T15:08:13.398Z,1.88
2023-06-30T15:10:40.697Z,1.65
2023-06-30T15:13:07.903Z,1.70
2023-06-30T15:15:35.207Z,1.52
2023-06-30T15:18:02.447Z,1.60
2023-06-30T15:20:29.647Z,1.85
2023-06-30T15:22:56.808Z,1.63
2023-06-30T15:25:27.991Z,2.08
2023-06-30T15:27:55.946Z,1.50
2023-06-30T15:30:23.516Z,1.85
2023-06-30T15:32:51.138Z,1.65
2023-06-30T15:35:19.012Z,1.80
2023-06-30T15:37:46.295Z,1.63
2023-06-30T15:40:13.907Z,1.80
2023-06-30T15:42:41.128Z,1.67
2023-06-30T15:45:08.587Z,1.88
2023-06-30T15:47:35.852Z,1.67
2023-06-30T15:50:03.347Z,1.90
2023-06-30T15:52:30.541Z,1.50
2023-06-30T15:55:10.868Z,2.00
2023-06-30T15:57:38.139Z,1.83
2023-06-30T16:00:06.444Z,1.88
2023-06-30T16:02:33.737Z,1.77
2023-06-30T16:05:01.061Z,1.77
2023-06-30T16:07:28.342Z,1.60
2023-06-30T16:09:55.727Z,1.70
2023-06-30T16:12:23.094Z,1.70
2023-06-30T16:14:50.399Z,2.20
2023-06-30T16:17:17.750Z,1.88
2023-06-30T16:19:45.010Z,2.08
2023-06-30T16:22:12.238Z,1.80
2023-06-30T16:24:41.991Z,1.80
2023-06-30T16:27:10.385Z,2.05
2023-06-30T16:29:38.278Z,1.95
2023-06-30T16:32:05.791Z,1.90
2023-06-30T16:34:33.240Z,1.85
2023-06-30T16:37:00.751Z,1.60
2023-06-30T16:39:28.022Z,1.77
2023-06-30T16:41:55.702Z,1.60
2023-06-30T16:44:22.910Z,1.65
2023-06-30T16:46:50.365Z,1.95
2023-06-30T16:49:17.745Z,1.83
2023-06-30T16:51:45.079Z,1.80
2023-06-30T16:54:12.314Z,1.60
2023-06-30T16:56:39.581Z,1.70
2023-06-30T16:59:06.781Z,1.65
2023-06-30T17:01:34.009Z,1.80
2023-06-30T17:04:01.216Z,1.60
2023-06-30T17:06:28.432Z,1.90
2023-06-30T17:08:55.637Z,2.00
2023-06-30T17:11:22.879Z,1.90
2023-06-30T17:13:50.068Z,1.80
2023-06-30T17:16:17.283Z,1.77
2023-06-30T17:18:44.477Z,1.48
2023-06-30T17:21:11.662Z,1.63
2023-06-30T17:23:38.949Z,1.50
2023-06-30T17:26:06.167Z,1.60
2023-06-30T17:28:33.339Z,1.75
2023-06-30T17:31:00.745Z,1.85
2023-06-30T17:33:27.996Z,1.75
2023-06-30T17:35:55.256Z,1.70
2023-06-30T17:38:22.454Z,1.80
2023-06-30T17:40:49.687Z,1.90
2023-06-30T17:43:17.341Z,4.07
2023-06-30T17:45:44.949Z,4.05
2023-06-30T17:48:13.167Z,2.42
2023-06-30T17:50:40.446Z,1.92
2023-06-30T17:53:07.786Z,1.92
2023-06-30T17:55:34.996Z,2.10
2023-06-30T17:58:02.192Z,1.90
2023-06-30T18:00:29.385Z,1.80
2023-06-30T18:02:56.634Z,1.83
2023-06-30T18:05:23.897Z,1.80
2023-06-30T18:07:51.112Z,1.75
2023-06-30T18:10:18.845Z,2.08
2023-06-30T18:12:46.013Z,1.80
2023-06-30T18:15:13.313Z,1.75
2023-06-30T18:17:40.591Z,2.15
2023-06-30T18:20:08.236Z,1.85
2023-06-30T18:22:35.457Z,2.13
2023-06-30T18:25:03.305Z,2.15
2023-06-30T18:27:30.581Z,2.42
2023-06-30T18:29:57.780Z,2.10
2023-06-30T18:32:24.985Z,2.33
2023-06-30T18:34:53.524Z,1.90
2023-06-30T18:37:21.261Z,2.10
2023-06-30T18:39:48.510Z,2.37
2023-06-30T18:42:15.676Z,2.30
2023-06-30T18:44:42.902Z,1.90
2023-06-30T18:47:10.083Z,2.10
2023-06-30T18:49:38.253Z,1.90
2023-06-30T18:52:05.758Z,2.00
2023-06-30T18:54:32.948Z,1.97
2023-06-30T18:57:00.129Z,2.20
2023-06-30T18:59:27.317Z,2.00
2023-06-30T19:01:54.545Z,2.20
2023-06-30T19:04:21.878Z,1.93
2023-06-30T19:06:51.163Z,2.50
2023-06-30T19:09:18.420Z,2.10
2023-06-30T19:11:45.825Z,2.03
2023-06-30T19:14:13.143Z,2.30
2023-06-30T19:16:40.364Z,2.27
2023-06-30T19:19:07.583Z,2.20
2023-06-30T19:21:34.835Z,2.03
2023-06-30T19:24:02.360Z,2.50
2023-06-30T19:26:29.572Z,2.20
2023-06-30T19:28:56.815Z,2.30
2023-06-30T19:31:24.093Z,2.23
2023-06-30T19:33:51.751Z,2.10
2023-06-30T19:36:19.058Z,2.10
2023-06-30T19:38:46.239Z,2.40
2023-06-30T19:41:13.632Z,2.20
2023-06-30T19:43:40.977Z,2.27
2023-06-30T19:46:08.230Z,1.90
2023-06-30T19:48:35.452Z,1.90
2023-06-30T19:51:02.657Z,2.40
2023-06-30T19:53:29.857Z,2.10
2023-06-30T19:55:57.033Z,2.43
2023-06-30T19:58:24.212Z,2.27
2023-06-30T20:00:51.424Z,2.27
2023-06-30T20:03:19.603Z,1.80
2023-06-30T20:05:47.203Z,1.90
2023-06-30T20:08:14.539Z,2.00
2023-06-30T20:10:41.736Z,1.97
2023-06-30T20:13:08.896Z,1.70
2023-06-30T20:15:36.067Z,2.20
2023-06-30T20:18:03.388Z,2.03
2023-06-30T20:20:30.649Z,2.00
2023-06-30T20:22:57.806Z,2.03
2023-06-30T20:25:24.982Z,1.90
2023-06-30T20:27:52.365Z,2.00
2023-06-30T20:30:19.714Z,1.93
2023-06-30T20:32:47.132Z,2.13
2023-06-30T20:35:14.971Z,1.93
2023-06-30T20:37:42.193Z,2.00
2023-06-30T20:40:09.840Z,1.97
2023-06-30T20:42:37.123Z,2.07
2023-06-30T20:45:04.881Z,2.97
2023-06-30T20:47:32.105Z,2.00
2023-06-30T20:49:59.572Z,1.87
2023-06-30T20:52:26.749Z,2.10
2023-06-30T20:54:53.942Z,2.00
2023-06-30T20:57:21.102Z,1.93
2023-06-30T20:59:48.254Z,2.10
2023-06-30T21:02:15.488Z,2.00
2023-06-30T21:04:42.699Z,2.00
2023-06-30T21:07:10.052Z,2.23
2023-06-30T21:09:37.590Z,2.20
2023-06-30T21:12:04.924Z,2.33
2023-06-30T21:14:32.126Z,2.50
2023-06-30T21:16:59.617Z,2.40
2023-06-30T21:19:26.826Z,2.33
2023-06-30T21:21:54.085Z,2.37
2023-06-30T21:24:21.307Z,2.30
2023-06-30T21:26:48.481Z,2.37
2023-06-30T21:29:15.725Z,2.30
2023-06-30T21:31:43.289Z,2.70
2023-06-30T21:34:10.612Z,2.40
2023-06-30T21:36:39.623Z,2.77
2023-06-30T21:39:07.548Z,2.57
2023-06-30T21:41:34.802Z,2.73
2023-06-30T21:44:02.038Z,2.60
2023-06-30T21:46:29.222Z,2.50
2023-06-30T21:48:56.426Z,2.70
2023-06-30T21:51:23.641Z,2.30
2023-06-30T21:53:54.085Z,2.43
2023-06-30T21:56:21.305Z,2.40
2023-06-30T21:58:48.536Z,2.33
2023-06-30T22:01:20.120Z,2.50
2023-06-30T22:03:50.475Z,2.83
2023-06-30T22:06:17.736Z,2.40
2023-06-30T22:08:44.900Z,2.60
2023-06-30T22:11:12.161Z,2.60
2023-06-30T22:13:39.473Z,2.40
2023-06-30T22:16:06.675Z,2.70
2023-06-30T22:18:33.938Z,2.47
2023-06-30T22:21:01.158Z,2.80
2023-06-30T22:23:28.354Z,2.47
2023-06-30T22:25:57.775Z,2.40
2023-06-30T22:28:24.977Z,2.90
2023-06-30T22:30:52.168Z,2.50
2023-06-30T22:33:19.375Z,2.53
2023-06-30T22:35:46.605Z,2.70
2023-06-30T22:38:13.776Z,2.77
2023-06-30T22:40:41.018Z,2.77
2023-06-30T22:43:08.285Z,2.90
2023-06-30T22:45:35.462Z,2.73
2023-06-30T22:48:02.675Z,2.70
2023-06-30T22:50:30.509Z,2.63
2023-06-30T22:52:57.722Z,2.83
2023-06-30T22:55:24.932Z,2.63
2023-06-30T22:57:52.098Z,3.00
2023-06-30T23:00:19.389Z,3.03
2023-06-30T23:02:46.633Z,2.87
2023-06-30T23:05:13.878Z,2.60
2023-06-30T23:07:41.096Z,3.00
2023-06-30T23:10:08.746Z,3.00
2023-06-30T23:12:36.155Z,2.90
2023-06-30T23:15:03.399Z,3.00
2023-06-30T23:17:30.648Z,3.30
2023-06-30T23:19:57.843Z,2.80
2023-06-30T23:22:27.284Z,3.00
2023-06-30T23:24:54.564Z,2.80
2023-06-30T23:27:24.544Z,3.20
2023-06-30T23:29:51.922Z,3.30
2023-06-30T23:32:22.617Z,3.20
2023-06-30T23:34:50.430Z,3.40
2023-06-30T23:37:18.407Z,3.20
2023-06-30T23:39:48.212Z,3.10
2023-06-30T23:42:15.502Z,3.30
2023-06-30T23:44:42.743Z,3.27
2023-06-30T23:47:16.826Z,2.90
2023-06-30T23:49:44.067Z,2.60
2023-06-30T23:52:11.314Z,2.90
2023-06-30T23:54:38.647Z,3.27
2023-06-30T23:57:06.020Z,3.13
2023-06-30T23:59:33.273Z,3.47
